Search for airport 
image banner adimage banner ad
image banner ad

LEBENA - Benageber (forestal)

Located in , Spain

ICAO - , IATA -

Data provided by Airmate  

General information

Coordinates: N39°44'6" W1°8'21"
Elevation is 2871 feet MSL.
 
Rated:
View ratings: [VIEW]


View others Airports in Valencia

Operational data

Open for public use
Current time UTC:
Current local time:
Weather at : LEBT - Valencia/Betera ( 58 km )
METAR: LEBT 062000Z AUTO 14005KT 100V160 CAVOK 23/17 Q1004
View NOTAMs / SUP AIP / TFR affecting this airport [VIEW]
Communications frequencies: [VIEW]

Runways:

RWY identifierQFULength (ft)Width (ft)SurfaceLDA (ft)
12328166DIRT
30328166DIRT

Airport contact information

Address: Spain

Satellite view of LEBENA